Time;durP1;ratioP1;P1;durP2;ratioP2;P2;SDS_P1;SDS_P2;PMS_P1;PMS_P2;Temp;Humidity;BMP_temperature;BMP_pressure;BME280_temperature;BME280_humidity;BME280_pressure;Samples;Min_cycle;Max_cycle;Signal;HPM_P1;HPM_P2
2022/09/16 00:01:26;;;;;;;6.00;1.33;;;;;;;16.91;69.27;92160.44;2051011;70;20169;-76
2022/09/16 00:03:56;;;;;;;5.45;1.10;;;;;;;16.87;69.16;92153.91;2051046;70;20222;-77
2022/09/16 00:06:23;;;;;;;2.85;1.00;;;;;;;16.89;69.55;92153.94;2050680;70;20153;-77
2022/09/16 00:08:50;;;;;;;3.05;1.00;;;;;;;16.95;68.90;92157.69;2053494;70;20134;-77
2022/09/16 00:11:17;;;;;;;4.00;1.20;;;;;;;16.64;70.69;92153.22;2054071;70;20131;-77
2022/09/16 00:13:44;;;;;;;1.00;0.90;;;;;;;16.67;70.55;92154.00;2051014;70;20142;-75
2022/09/16 00:16:15;;;;;;;3.88;1.20;;;;;;;16.77;70.32;92152.22;2054517;70;20589;-75
2022/09/16 00:18:41;;;;;;;4.32;1.30;;;;;;;16.76;70.44;92161.38;2054393;70;20156;-76
2022/09/16 00:21:08;;;;;;;3.00;0.95;;;;;;;16.74;70.64;92159.22;2054453;70;20525;-76
2022/09/16 00:23:35;;;;;;;2.15;1.05;;;;;;;16.90;69.23;92156.13;2053135;70;20226;-78
2022/09/16 00:26:01;;;;;;;4.70;1.20;;;;;;;16.92;69.20;92158.31;2051984;70;20166;-78
2022/09/16 00:28:26;;;;;;;2.45;1.20;;;;;;;16.82;69.29;92152.34;2051942;70;20185;-77
2022/09/16 00:30:52;;;;;;;5.47;1.20;;;;;;;16.73;70.59;92166.31;2051775;70;20197;-76
2022/09/16 00:33:19;;;;;;;3.28;1.33;;;;;;;16.82;69.64;92155.91;2051769;70;20178;-77
2022/09/16 00:35:45;;;;;;;2.95;1.10;;;;;;;16.81;70.08;92157.28;2048335;70;20197;-76
2022/09/16 00:38:11;;;;;;;3.33;1.20;;;;;;;16.81;69.51;92157.28;2051672;70;20154;-77
2022/09/16 00:40:45;;;;;;;2.53;0.98;;;;;;;16.84;70.18;92155.94;2051341;70;20229;-77
2022/09/16 00:43:16;;;;;;;3.70;1.10;;;;;;;16.82;69.66;92149.50;2051583;70;20150;-77
2022/09/16 00:45:45;;;;;;;4.75;1.15;;;;;;;16.88;69.51;92149.66;2050497;70;20142;-76
2022/09/16 00:48:15;;;;;;;3.22;1.02;;;;;;;16.94;69.05;92155.50;2050876;70;20146;-78
2022/09/16 00:50:50;;;;;;;4.88;0.90;;;;;;;16.92;69.29;92155.47;2050743;70;20142;-76
2022/09/16 00:53:23;;;;;;;;;;;;;;;16.88;70.10;92152.50;2047808;70;20288;-76
2022/09/16 00:55:52;;;;;;;4.95;1.10;;;;;;;16.84;69.76;92149.53;2052758;70;20060;-75
2022/09/16 00:58:38;;;;;;;4.18;1.00;;;;;;;16.89;69.41;92160.34;2050668;70;20217;-75
2022/09/16 01:01:04;;;;;;;6.82;1.20;;;;;;;16.89;69.65;92159.63;2050390;70;20150;-76
2022/09/16 01:03:34;;;;;;;3.15;1.00;;;;;;;16.80;70.83;92157.94;2050583;70;20160;-75
2022/09/16 01:06:00;;;;;;;3.53;1.10;;;;;;;16.79;70.44;92154.38;2050895;70;20161;-75
2022/09/16 01:08:25;;;;;;;4.95;1.27;;;;;;;16.60;71.98;92152.38;2050905;70;20170;-76
2022/09/16 01:10:51;;;;;;;5.57;1.00;;;;;;;16.76;70.01;92152.88;2050414;70;20131;-77
2022/09/16 01:13:17;;;;;;;4.25;1.10;;;;;;;16.79;69.99;92147.97;2050710;70;20253;-75
2022/09/16 01:16:04;;;;;;;2.83;1.38;;;;;;;16.74;70.51;92147.13;2050991;70;20146;-76
2022/09/16 01:18:51;;;;;;;8.73;1.35;;;;;;;16.84;70.06;92147.41;2050511;70;20146;-76
2022/09/16 01:21:25;;;;;;;3.70;1.13;;;;;;;16.80;71.07;92152.25;2050688;70;20142;-76
2022/09/16 01:24:10;;;;;;;3.80;1.02;;;;;;;16.75;70.22;92163.50;2050457;70;20261;-76
2022/09/16 01:27:20;;;;;;;4.38;0.88;;;;;;;16.77;70.96;92160.75;2050667;70;20182;-76
2022/09/16 01:30:07;;;;;;;5.43;1.00;;;;;;;16.82;71.03;92167.28;2047383;70;20258;-77
2022/09/16 01:32:52;;;;;;;3.13;1.00;;;;;;;16.82;69.98;92170.13;2050439;70;20142;-76
2022/09/16 01:35:42;;;;;;;3.83;0.98;;;;;;;16.85;70.41;92174.44;2050554;70;20146;-77
2022/09/16 01:38:33;;;;;;;4.20;1.15;;;;;;;16.84;70.58;92169.44;2051242;70;20150;-77
2022/09/16 01:41:20;;;;;;;3.15;1.20;;;;;;;16.89;69.52;92173.84;2050379;70;20680;-76
2022/09/16 01:43:54;;;;;;;2.38;1.10;;;;;;;16.48;72.61;92169.75;2047213;70;20241;-77
2022/09/16 01:46:44;;;;;;;2.92;1.35;;;;;;;16.56;72.08;92158.66;2044746;70;20139;-77
2022/09/16 01:49:47;;;;;;;4.22;1.52;;;;;;;16.32;73.87;92149.41;2044072;70;20150;-77
2022/09/16 01:52:21;;;;;;;13.33;8.70;;;;;;;16.43;72.59;92157.56;2047148;70;20147;-76
2022/09/16 01:54:58;;;;;;;6.03;3.45;;;;;;;16.62;71.53;92158.81;2047238;70;20285;-77
2022/09/16 01:57:34;;;;;;;3.92;2.03;;;;;;;16.70;71.65;92164.03;2047027;70;20187;-75
2022/09/16 02:00:05;;;;;;;3.45;1.20;;;;;;;16.67;72.55;92154.72;2047410;70;20133;-77
2022/09/16 02:02:40;;;;;;;3.03;1.30;;;;;;;16.62;72.98;92155.25;2047470;70;20143;-77
2022/09/16 02:05:12;;;;;;;8.93;1.40;;;;;;;16.66;72.84;92158.94;2049711;70;20671;-77
2022/09/16 02:07:43;;;;;;;3.35;1.10;;;;;;;16.73;71.01;92154.94;2047321;70;20501;-78
2022/09/16 02:10:22;;;;;;;2.60;1.40;;;;;;;16.72;70.59;92162.00;2043878;70;20154;-77
2022/09/16 02:12:52;;;;;;;4.53;1.50;;;;;;;16.79;70.77;92156.50;2047380;70;20227;-78
2022/09/16 02:15:21;;;;;;;2.10;1.10;;;;;;;16.81;70.49;92150.88;2047333;70;20142;-78
2022/09/16 02:17:53;;;;;;;3.38;1.40;;;;;;;16.75;70.97;92145.72;2047449;70;20149;-78
2022/09/16 02:20:23;;;;;;;;;;;;;;;16.69;70.94;92151.94;2047748;70;20155;-78
2022/09/16 02:22:56;;;;;;;2.45;1.27;;;;;;;16.73;70.66;92145.69;2047451;70;20127;-78
2022/09/16 02:25:23;;;;;;;4.18;1.45;;;;;;;16.30;73.11;92146.47;2047328;70;20155;-78
2022/09/16 02:27:51;;;;;;;1.63;1.20;;;;;;;16.53;71.57;92145.75;2047357;70;20147;-79
2022/09/16 02:30:20;;;;;;;5.28;1.55;;;;;;;16.50;72.05;92152.78;2047252;70;20173;-77
2022/09/16 02:32:52;;;;;;;5.80;1.40;;;;;;;16.65;71.33;92151.81;2047410;70;20228;-78
2022/09/16 02:35:20;;;;;;;6.88;1.30;;;;;;;16.72;71.41;92147.06;2044620;70;20138;-78
2022/09/16 02:37:54;;;;;;;3.55;1.20;;;;;;;16.81;70.01;92148.03;2048209;70;20308;-77
2022/09/16 02:40:33;;;;;;;5.03;1.40;;;;;;;16.75;70.77;92145.72;2047750;70;20530;-77
2022/09/16 02:42:59;;;;;;;4.65;1.23;;;;;;;16.78;70.03;92141.56;2049970;70;20242;-78
2022/09/16 02:45:45;;;;;;;3.75;1.40;;;;;;;16.77;69.73;92140.13;2048699;70;20366;-78
2022/09/16 02:48:49;;;;;;;3.30;1.50;;;;;;;16.33;73.47;92150.84;2051472;70;20572;-78
2022/09/16 02:51:21;;;;;;;2.67;1.50;;;;;;;16.24;74.32;92153.44;2050891;70;20230;-78
2022/09/16 02:53:55;;;;;;;3.38;1.80;;;;;;;16.35;72.83;92143.09;2051308;70;20241;-77
2022/09/16 02:56:34;;;;;;;4.43;1.52;;;;;;;16.55;71.02;92148.69;2051289;70;20233;-77
2022/09/16 02:59:02;;;;;;;2.35;1.67;;;;;;;16.53;71.84;92140.81;2051378;70;20154;-77
2022/09/16 03:01:30;;;;;;;4.32;1.50;;;;;;;16.65;71.12;92136.88;2051499;70;20498;-77
2022/09/16 03:03:56;;;;;;;3.65;1.63;;;;;;;16.36;72.59;92141.00;2047684;70;20257;-77
2022/09/16 03:06:24;;;;;;;2.63;1.52;;;;;;;16.44;72.15;92144.06;2051477;70;20631;-78
2022/09/16 03:08:51;;;;;;;3.65;1.90;;;;;;;15.98;75.26;92136.28;2051288;70;20201;-78
2022/09/16 03:11:19;;;;;;;3.00;1.70;;;;;;;16.14;74.59;92146.72;2051214;70;20158;-77
2022/09/16 03:14:01;;;;;;;2.33;1.77;;;;;;;16.39;73.21;92137.53;2051412;70;20171;-78
2022/09/16 03:16:47;;;;;;;3.47;1.63;;;;;;;16.53;72.18;92140.81;2051592;70;20534;-77
2022/09/16 03:19:24;;;;;;;2.97;1.80;;;;;;;16.57;71.24;92139.47;2051154;70;20483;-77
2022/09/16 03:22:01;;;;;;;3.35;1.83;;;;;;;16.67;69.95;92140.50;2051481;70;20170;-77
2022/09/16 03:25:05;;;;;;;3.30;1.95;;;;;;;15.94;76.14;92143.94;2051468;70;20154;-77
2022/09/16 03:27:56;;;;;;;3.35;1.90;;;;;;;16.37;72.52;92139.59;2051430;70;20210;-78
2022/09/16 03:30:22;;;;;;;2.50;1.83;;;;;;;16.52;71.42;92142.19;2051419;70;20162;-77
2022/09/16 03:32:55;;;;;;;3.35;2.17;;;;;;;16.51;71.13;92134.34;2051318;70;20142;-77
2022/09/16 03:35:30;;;;;;;4.63;2.25;;;;;;;16.35;72.35;92123.22;2051429;70;20217;-77
2022/09/16 03:37:58;;;;;;;5.53;2.22;;;;;;;16.52;70.57;92132.97;2051320;70;20181;-78
2022/09/16 03:40:28;;;;;;;3.03;2.10;;;;;;;16.42;72.17;92127.69;2051227;70;20537;-77
2022/09/16 03:42:56;;;;;;;2.92;2.05;;;;;;;16.49;71.63;92125.75;2051249;70;20154;-76
2022/09/16 03:45:22;;;;;;;2.17;1.90;;;;;;;16.37;73.03;92128.25;2051053;70;20192;-75
2022/09/16 03:47:50;;;;;;;4.35;2.38;;;;;;;16.49;70.97;92125.75;2050795;70;20157;-76
2022/09/16 03:50:17;;;;;;;3.17;2.00;;;;;;;16.49;71.90;92129.34;2050811;70;20174;-77
2022/09/16 03:52:43;;;;;;;2.85;2.10;;;;;;;16.44;72.43;92124.19;2050921;70;20158;-77
2022/09/16 03:55:11;;;;;;;3.00;2.28;;;;;;;16.44;71.87;92132.72;2050952;70;20215;-77
2022/09/16 03:57:37;;;;;;;2.83;2.10;;;;;;;16.49;70.65;92132.19;2050918;70;20166;-77
2022/09/16 04:00:05;;;;;;;4.70;2.30;;;;;;;16.27;73.02;92129.38;2047548;70;20592;-78
2022/09/16 04:02:37;;;;;;;5.50;2.63;;;;;;;16.40;71.33;92127.66;2050926;70;20212;-78
2022/09/16 04:05:03;;;;;;;4.70;2.45;;;;;;;16.29;73.40;92122.31;2050891;70;20196;-78
2022/09/16 04:07:32;;;;;;;3.97;2.50;;;;;;;16.38;71.78;92115.50;2047669;70;20142;-78
2022/09/16 04:09:57;;;;;;;4.55;2.50;;;;;;;16.42;71.51;92119.19;2047584;70;20170;-77
2022/09/16 04:12:23;;;;;;;6.10;2.83;;;;;;;16.42;72.37;92110.66;2050757;70;20151;-77
2022/09/16 04:14:49;;;;;;;3.70;2.80;;;;;;;16.33;73.19;92119.59;2050967;70;20146;-77
2022/09/16 04:17:15;;;;;;;4.55;3.03;;;;;;;16.15;73.63;92116.94;2050806;70;20157;-77
2022/09/16 04:19:41;;;;;;;5.22;3.28;;;;;;;15.88;74.97;92121.78;2050811;70;20142;-78
2022/09/16 04:22:06;;;;;;;4.80;3.50;;;;;;;15.66;77.38;92118.94;2050943;70;20162;-77
2022/09/16 04:24:32;;;;;;;4.45;3.30;;;;;;;15.77;75.81;92119.28;2050985;70;20597;-77
2022/09/16 04:26:57;;;;;;;7.40;3.25;;;;;;;15.83;75.82;92111.69;2052991;70;20558;-77
2022/09/16 04:29:23;;;;;;;5.97;3.65;;;;;;;15.54;78.33;92117.78;2050899;70;20240;-76
2022/09/16 04:31:48;;;;;;;4.07;3.35;;;;;;;15.83;76.17;92111.69;2050917;70;20150;-77
2022/09/16 04:34:14;;;;;;;4.80;3.70;;;;;;;15.60;77.43;92115.88;2050894;70;20139;-77
2022/09/16 04:36:39;;;;;;;4.25;3.58;;;;;;;15.90;75.02;92121.84;2050873;70;20161;-77
2022/09/16 04:39:05;;;;;;;6.55;3.80;;;;;;;15.98;75.35;92118.53;2050878;70;20173;-77
2022/09/16 04:41:31;;;;;;;6.13;3.50;;;;;;;16.10;74.48;92118.91;2050729;70;20612;-76
2022/09/16 04:43:58;;;;;;;6.07;3.60;;;;;;;16.20;73.47;92115.66;2050754;70;20146;-76
2022/09/16 04:46:25;;;;;;;6.22;4.25;;;;;;;16.00;74.83;92116.50;2045230;70;20471;-77
2022/09/16 04:48:52;;;;;;;5.30;4.13;;;;;;;15.74;76.37;92122.03;2047531;70;20135;-77
2022/09/16 04:51:19;;;;;;;6.53;4.43;;;;;;;15.60;77.18;92121.53;2047408;70;20592;-76
2022/09/16 04:53:46;;;;;;;5.50;3.90;;;;;;;15.76;75.86;92124.22;2047470;70;20214;-76
2022/09/16 04:56:16;;;;;;;7.15;3.72;;;;;;;15.93;75.27;92122.63;2047431;70;20238;-76
2022/09/16 04:58:53;;;;;;;5.97;4.20;;;;;;;15.86;75.89;92123.84;2047685;70;20292;-77
2022/09/16 05:01:26;;;;;;;5.50;3.55;;;;;;;16.06;73.60;92126.56;2043989;70;20151;-76
2022/09/16 05:03:55;;;;;;;5.57;4.03;;;;;;;15.94;74.58;92133.34;2047524;70;20147;-76
2022/09/16 05:06:30;;;;;;;5.90;3.50;;;;;;;16.16;72.89;92144.66;2047475;70;20571;-76
2022/09/16 05:08:58;;;;;;;4.65;3.72;;;;;;;16.19;72.93;92145.44;2047431;70;20182;-76
2022/09/16 05:11:26;;;;;;;4.78;3.85;;;;;;;16.16;73.70;92138.25;2047272;70;20135;-77
2022/09/16 05:13:52;;;;;;;4.70;3.90;;;;;;;16.23;72.98;92139.91;2049584;70;20254;-77
2022/09/16 05:16:20;;;;;;;5.50;3.97;;;;;;;16.26;72.56;92139.31;2047431;70;20253;-77
2022/09/16 05:18:49;;;;;;;4.70;4.05;;;;;;;16.18;74.02;92136.22;2047477;70;20551;-77
2022/09/16 05:21:17;;;;;;;6.25;3.88;;;;;;;16.21;73.44;92132.03;2047340;70;20161;-78
2022/09/16 05:23:44;;;;;;;5.40;4.10;;;;;;;16.25;72.48;92137.84;2043787;70;20226;-75
2022/09/16 05:26:13;;;;;;;5.63;3.90;;;;;;;16.19;72.47;92134.09;2047228;70;20175;-77
2022/09/16 05:28:39;;;;;;;4.50;3.80;;;;;;;16.26;72.51;92127.19;2047376;70;20158;-77
2022/09/16 05:31:12;;;;;;;6.55;4.10;;;;;;;15.72;76.20;92124.09;2047366;70;20531;-77
2022/09/16 05:33:39;;;;;;;7.97;4.38;;;;;;;15.53;77.20;92125.56;2047345;70;20634;-77
2022/09/16 05:36:11;;;;;;;7.53;3.88;;;;;;;15.88;74.43;92118.94;2047558;70;20147;-76
2022/09/16 05:38:37;;;;;;;5.07;3.70;;;;;;;16.15;73.43;92114.81;2047542;70;20246;-76
2022/09/16 05:41:04;;;;;;;6.38;4.00;;;;;;;16.17;72.98;92114.88;2047218;70;20166;-76
2022/09/16 05:43:31;;;;;;;4.72;3.50;;;;;;;16.18;73.36;92102.13;2043816;70;20307;-76
2022/09/16 05:45:57;;;;;;;4.78;3.70;;;;;;;16.15;73.22;92106.28;2047403;70;20178;-77
2022/09/16 05:48:24;;;;;;;6.68;4.13;;;;;;;16.15;72.88;92102.72;2047509;70;20673;-77
2022/09/16 05:50:55;;;;;;;7.05;3.70;;;;;;;16.30;70.71;92095.34;2050973;70;20148;-77
2022/09/16 05:53:22;;;;;;;6.93;3.92;;;;;;;16.22;72.61;92102.25;2050729;70;20240;-77
2022/09/16 05:56:09;;;;;;;5.63;4.30;;;;;;;16.25;72.57;92103.03;2050653;70;20172;-77
2022/09/16 05:58:35;;;;;;;7.63;5.40;;;;;;;16.03;73.84;92111.59;2050673;70;20134;-77
2022/09/16 06:01:04;;;;;;;10.23;7.68;;;;;;;16.14;71.99;92116.19;2050646;70;20146;-78
2022/09/16 06:03:31;;;;;;;11.18;6.47;;;;;;;16.24;71.46;92124.31;2050815;70;20142;-77
2022/09/16 06:06:02;;;;;;;8.57;6.30;;;;;;;16.17;72.15;92125.50;2052998;70;20467;-78
2022/09/16 06:08:29;;;;;;;6.82;5.07;;;;;;;15.85;74.37;92120.28;2050466;70;20142;-77
2022/09/16 06:10:55;;;;;;;7.43;4.95;;;;;;;15.57;76.14;92122.84;2050379;70;20206;-78
2022/09/16 06:13:21;;;;;;;7.43;4.68;;;;;;;16.03;73.82;92120.09;2050524;70;20150;-78
2022/09/16 06:15:53;;;;;;;7.57;4.93;;;;;;;16.20;72.78;92121.34;2050470;70;20221;-78
2022/09/16 06:18:20;;;;;;;6.35;5.03;;;;;;;15.80;74.57;92123.63;2050648;70;20146;-76
2022/09/16 06:20:46;;;;;;;5.07;4.40;;;;;;;16.17;72.49;92114.13;2050556;70;20158;-77
2022/09/16 06:23:12;;;;;;;5.32;4.07;;;;;;;16.30;72.11;92118.09;2050615;70;20146;-77
2022/09/16 06:25:38;;;;;;;7.95;4.80;;;;;;;16.27;72.59;92117.31;2050433;70;20233;-76
2022/09/16 06:28:04;;;;;;;7.22;4.15;;;;;;;16.32;73.27;92115.31;2050572;70;20150;-77
2022/09/16 06:30:30;;;;;;;6.72;5.05;;;;;;;16.30;73.27;92118.09;2050667;70;20142;-76
2022/09/16 06:32:56;;;;;;;6.55;4.50;;;;;;;16.44;72.68;92112.81;2050678;70;20168;-77
2022/09/16 06:35:22;;;;;;;7.43;4.95;;;;;;;16.46;72.58;92110.78;2047193;70;20251;-77
2022/09/16 06:37:47;;;;;;;7.30;4.85;;;;;;;16.51;73.00;92105.94;2050497;70;20145;-76
2022/09/16 06:40:13;;;;;;;6.35;4.80;;;;;;;16.50;71.93;92099.53;2050392;70;20507;-77
2022/09/16 06:42:38;;;;;;;5.43;4.40;;;;;;;16.43;71.73;92089.38;2050357;70;20138;-76
2022/09/16 06:45:05;;;;;;;9.18;5.25;;;;;;;16.08;74.70;92101.81;2050086;70;20224;-75
2022/09/16 06:47:32;;;;;;;7.05;5.50;;;;;;;15.94;75.57;92098.53;2047107;70;20582;-76
2022/09/16 06:49:58;;;;;;;6.82;5.30;;;;;;;16.00;75.17;92101.56;2047130;70;20621;-76
2022/09/16 06:52:24;;;;;;;5.80;4.75;;;;;;;15.54;77.21;92098.66;2050388;70;20150;-77
2022/09/16 06:54:49;;;;;;;8.38;5.45;;;;;;;15.88;75.68;92101.91;2050438;70;20181;-78
2022/09/16 06:57:18;;;;;;;6.18;4.60;;;;;;;16.20;72.54;92093.66;2050273;70;20574;-77
2022/09/16 06:59:45;;;;;;;5.82;4.40;;;;;;;16.27;72.00;92091.75;2050546;70;20133;-77
2022/09/16 07:02:12;;;;;;;7.35;4.60;;;;;;;16.39;72.78;92092.09;2050597;70;20230;-77
2022/09/16 07:04:38;;;;;;;7.03;4.10;;;;;;;16.51;70.66;92086.06;2050589;70;20169;-77
2022/09/16 07:07:04;;;;;;;6.07;4.05;;;;;;;16.52;71.91;92093.91;2050554;70;20143;-77
2022/09/16 07:09:31;;;;;;;6.75;4.68;;;;;;;16.58;71.34;92095.47;2050650;70;20138;-77
2022/09/16 07:11:58;;;;;;;5.75;4.65;;;;;;;16.64;71.26;92093.53;2050125;70;20302;-78
2022/09/16 07:14:25;;;;;;;6.28;4.90;;;;;;;16.54;72.06;92101.78;2050531;70;20143;-78
2022/09/16 07:16:51;;;;;;;7.63;5.15;;;;;;;16.44;73.34;92102.19;2052612;70;20146;-78
2022/09/16 07:19:17;;;;;;;10.05;6.18;;;;;;;15.83;77.02;92103.16;2050614;70;20158;-77
2022/09/16 07:21:44;;;;;;;7.05;5.45;;;;;;;16.16;74.81;92101.34;2051067;70;20154;-77
2022/09/16 07:24:12;;;;;;;8.07;5.15;;;;;;;16.59;71.90;92099.78;2050910;70;20183;-78
2022/09/16 07:26:39;;;;;;;6.70;5.45;;;;;;;16.56;73.48;92096.16;2050875;70;20150;-77
2022/09/16 07:29:08;;;;;;;7.32;6.25;;;;;;;15.78;78.17;92100.84;2051161;70;20162;-76
2022/09/16 07:31:36;;;;;;;7.20;5.00;;;;;;;16.38;74.93;92096.31;2047755;70;20187;-78
2022/09/16 07:34:03;;;;;;;7.25;5.63;;;;;;;16.28;75.17;92096.03;2050961;70;20166;-77
2022/09/16 07:36:35;;;;;;;6.32;5.15;;;;;;;16.32;74.30;92107.50;2051026;70;20157;-77
2022/09/16 07:39:01;;;;;;;7.78;4.80;;;;;;;16.76;71.99;92113.06;2051031;70;20489;-77
2022/09/16 07:41:31;;;;;;;7.25;4.95;;;;;;;17.11;71.35;92114.03;2050820;70;20142;-76
2022/09/16 07:43:58;;;;;;;7.03;5.13;;;;;;;16.50;74.88;92113.75;2050843;70;20232;-78
2022/09/16 07:46:26;;;;;;;7.30;5.10;;;;;;;16.52;75.74;92110.94;2050706;70;20521;-76
2022/09/16 07:48:53;;;;;;;8.18;4.72;;;;;;;16.63;73.87;92102.72;2050806;70;20185;-76
2022/09/16 07:51:22;;;;;;;9.13;5.65;;;;;;;16.81;73.04;92117.47;2050822;70;20214;-76
2022/09/16 07:53:52;;;;;;;10.63;7.72;;;;;;;16.66;74.18;92116.31;2050785;70;20545;-76
2022/09/16 07:56:21;;;;;;;6.88;5.05;;;;;;;16.69;72.84;92106.47;2051072;70;20150;-76
2022/09/16 07:58:47;;;;;;;7.03;4.95;;;;;;;16.63;73.80;92105.56;2047689;70;20170;-77
2022/09/16 08:01:16;;;;;;;5.40;4.90;;;;;;;17.10;71.01;92098.38;2050933;70;20173;-76
2022/09/16 08:03:43;;;;;;;5.95;4.57;;;;;;;17.33;69.29;92096.88;2050813;70;20182;-77
2022/09/16 08:06:15;;;;;;;6.75;4.38;;;;;;;17.23;70.40;92095.19;2050645;70;20578;-75
2022/09/16 08:08:41;;;;;;;6.50;4.57;;;;;;;17.34;70.29;92098.31;2050703;70;20198;-76
2022/09/16 08:11:07;;;;;;;7.13;4.70;;;;;;;17.21;72.33;92097.25;2050590;70;20174;-75
2022/09/16 08:13:35;;;;;;;6.05;4.60;;;;;;;17.02;72.01;92091.06;2050690;70;20175;-76
2022/09/16 08:16:07;;;;;;;5.93;4.60;;;;;;;17.27;71.18;92092.47;2050821;70;20483;-76
2022/09/16 08:18:33;;;;;;;8.68;4.90;;;;;;;17.48;70.21;92088.00;2050744;70;20151;-76
2022/09/16 08:21:11;;;;;;;10.43;4.55;;;;;;;17.51;69.53;92086.66;2050655;70;20199;-76
2022/09/16 08:23:37;;;;;;;7.00;4.45;;;;;;;17.81;67.79;92088.84;2050697;70;20170;-76
2022/09/16 08:26:04;;;;;;;5.07;4.07;;;;;;;18.06;68.47;92080.91;2050738;70;20202;-77
2022/09/16 08:28:30;;;;;;;5.97;4.50;;;;;;;17.62;69.80;92078.38;2050728;70;20315;-77
2022/09/16 08:31:00;;;;;;;4.38;3.97;;;;;;;17.75;68.89;92080.88;2050693;70;20158;-75
2022/09/16 08:33:26;;;;;;;5.80;4.80;;;;;;;17.75;69.22;92085.84;2050688;70;20252;-77
2022/09/16 08:36:07;;;;;;;4.45;4.05;;;;;;;17.58;69.57;92092.50;2050666;70;20182;-77
2022/09/16 08:38:34;;;;;;;4.53;3.20;;;;;;;17.98;67.82;92090.69;2050713;70;20234;-77
2022/09/16 08:41:27;;;;;;;4.40;4.00;;;;;;;18.09;67.99;92102.31;2050758;70;20155;-77
2022/09/16 08:44:11;;;;;;;6.25;3.38;;;;;;;18.42;65.46;92103.78;2050772;70;20594;-77
2022/09/16 08:46:52;;;;;;;5.07;4.20;;;;;;;18.05;67.41;92105.78;2048150;70;20174;-77
2022/09/16 08:49:56;;;;;;;4.55;3.58;;;;;;;17.34;69.39;92109.69;2044470;70;20143;-76
2022/09/16 08:52:31;;;;;;;3.50;3.00;;;;;;;18.13;66.67;92110.94;2046810;70;20146;-77
2022/09/16 08:55:10;;;;;;;4.70;3.50;;;;;;;18.03;66.89;92112.16;2044429;70;20266;-77
2022/09/16 08:57:46;;;;;;;5.57;3.70;;;;;;;18.28;65.89;92113.47;2047573;70;20167;-75
2022/09/16 09:00:17;;;;;;;6.07;3.95;;;;;;;17.95;66.02;92100.56;2047620;70;20146;-75
2022/09/16 09:03:06;;;;;;;6.75;4.13;;;;;;;17.90;67.52;92096.19;2047506;70;20250;-75
2022/09/16 09:05:34;;;;;;;5.75;3.42;;;;;;;17.98;66.92;92092.81;2044526;70;20157;-75
2022/09/16 09:08:34;;;;;;;4.15;3.17;;;;;;;17.99;68.04;92100.66;2047561;70;20150;-75
2022/09/16 09:11:14;;;;;;;5.40;3.97;;;;;;;18.25;67.11;92085.59;2047381;70;20143;-75
2022/09/16 09:14:14;;;;;;;7.40;4.35;;;;;;;18.38;66.29;92083.75;2047492;70;20499;-76
2022/09/16 09:16:45;;;;;;;4.97;3.95;;;;;;;18.77;64.63;92079.63;2047599;70;20591;-76
2022/09/16 09:19:17;;;;;;;15.70;6.32;;;;;;;18.39;66.98;92088.03;2047433;70;20625;-75
2022/09/16 09:21:56;;;;;;;6.18;4.38;;;;;;;17.95;68.57;92071.38;2047526;70;20199;-75
2022/09/16 09:24:40;;;;;;;4.90;4.13;;;;;;;19.57;67.17;92084.72;2047446;70;20199;-76
2022/09/16 09:27:27;;;;;;;5.20;3.78;;;;;;;20.52;65.03;92079.84;2047373;70;20658;-76
2022/09/16 09:30:10;;;;;;;4.10;3.55;;;;;;;20.69;61.79;92071.47;2047531;70;20147;-76
2022/09/16 09:32:47;;;;;;;3.70;3.40;;;;;;;20.86;60.62;92076.00;2047551;70;20245;-75
2022/09/16 09:35:34;;;;;;;3.58;3.28;;;;;;;21.11;59.07;92070.56;2047584;70;20151;-75
2022/09/16 09:38:24;;;;;;;3.70;3.17;;;;;;;21.12;57.29;92072.75;2047408;70;20143;-76
2022/09/16 09:40:58;;;;;;;4.85;3.72;;;;;;;20.44;59.87;92071.13;2047274;70;20166;-75
2022/09/16 09:43:42;;;;;;;3.88;3.05;;;;;;;20.76;58.69;92070.88;2047121;70;20185;-76
2022/09/16 09:46:27;;;;;;;5.32;3.20;;;;;;;21.29;58.57;92070.78;2049884;70;20164;-75
2022/09/16 09:49:03;;;;;;;5.47;2.90;;;;;;;20.81;57.39;92072.38;2054440;70;20574;-76
2022/09/16 09:51:31;;;;;;;3.13;2.70;;;;;;;20.45;58.85;92057.56;2054665;70;20589;-74
2022/09/16 09:54:05;;;;;;;3.78;2.80;;;;;;;20.18;58.06;92056.44;2054380;70;20169;-74
2022/09/16 09:56:36;;;;;;;3.35;2.40;;;;;;;20.48;58.49;92062.66;2054335;70;20158;-75
2022/09/16 09:59:25;;;;;;;3.75;2.70;;;;;;;20.68;57.84;92055.75;2054570;70;20145;-75
2022/09/16 10:01:56;;;;;;;2.75;2.42;;;;;;;20.79;57.34;92055.16;2054438;70;20149;-75
2022/09/16 10:04:22;;;;;;;3.33;2.70;;;;;;;20.80;58.42;92053.03;2054370;69;20181;-75
2022/09/16 10:06:50;;;;;;;4.40;3.30;;;;;;;20.43;58.72;92048.94;2054372;70;20285;-75
2022/09/16 10:09:19;;;;;;;6.18;3.72;;;;;;;20.08;59.92;92044.88;2054330;70;20256;-75
2022/09/16 10:11:48;;;;;;;3.72;3.40;;;;;;;20.31;59.57;92043.78;2048181;70;20572;-76
2022/09/16 10:14:29;;;;;;;6.47;3.50;;;;;;;19.89;60.66;92035.31;2054344;70;20289;-75
2022/09/16 10:16:55;;;;;;;3.80;3.40;;;;;;;20.31;59.45;92029.50;2054335;69;20150;-76
2022/09/16 10:19:24;;;;;;;5.80;3.67;;;;;;;20.41;59.32;92028.91;2054261;70;20609;-76
2022/09/16 10:21:52;;;;;;;5.20;3.63;;;;;;;20.56;59.37;92022.00;2054383;70;20141;-76
2022/09/16 10:24:28;;;;;;;5.13;4.35;;;;;;;20.02;60.59;92031.94;2054294;70;20212;-76
2022/09/16 10:26:55;;;;;;;4.85;3.80;;;;;;;19.64;62.13;92034.19;2054210;70;20169;-75
2022/09/16 10:29:21;;;;;;;5.40;4.28;;;;;;;19.58;61.55;92031.91;2054285;70;20193;-75
2022/09/16 10:31:47;;;;;;;7.30;3.90;;;;;;;20.59;59.24;92029.19;2054268;70;20162;-75
2022/09/16 10:34:16;;;;;;;7.32;4.10;;;;;;;20.38;58.69;92027.44;2054175;70;20153;-75
2022/09/16 10:36:41;;;;;;;5.03;4.00;;;;;;;20.69;58.54;92023.59;2050909;70;20186;-76
2022/09/16 10:39:23;;;;;;;4.25;3.85;;;;;;;20.98;58.20;92021.81;2054201;70;20642;-75
2022/09/16 10:41:49;;;;;;;5.18;3.88;;;;;;;20.88;57.76;92018.09;2054298;70;20171;-76
2022/09/16 10:44:21;;;;;;;4.45;3.88;;;;;;;20.22;59.27;92007.94;2054174;70;20161;-76
2022/09/16 10:47:00;;;;;;;5.85;4.00;;;;;;;20.91;57.74;92016.72;2054210;70;20158;-76
2022/09/16 10:49:36;;;;;;;5.30;4.07;;;;;;;20.96;57.40;92013.19;2054231;70;20233;-75
2022/09/16 10:52:13;;;;;;;4.50;3.35;;;;;;;21.14;56.69;92006.22;2054290;70;20142;-75
2022/09/16 10:54:38;;;;;;;4.70;3.63;;;;;;;20.88;56.97;92007.38;2054352;69;20534;-75
2022/09/16 10:57:20;;;;;;;5.32;3.90;;;;;;;20.90;57.35;92004.53;2054703;69;20190;-75
2022/09/16 11:00:13;;;;;;;3.88;3.47;;;;;;;21.16;56.53;92003.38;2051516;70;20221;-75
2022/09/16 11:03:05;;;;;;;5.45;3.78;;;;;;;21.15;57.01;92007.66;2052953;70;20161;-75
2022/09/16 11:05:37;;;;;;;47.78;4.70;;;;;;;21.44;55.78;92003.72;2054700;70;20142;-74
2022/09/16 11:08:16;;;;;;;3.63;3.20;;;;;;;24.08;50.87;91994.88;2054715;70;20141;-75
2022/09/16 11:11:13;;;;;;;4.28;3.20;;;;;;;23.86;50.46;91997.75;2051535;70;20166;-75
2022/09/16 11:14:01;;;;;;;7.32;3.03;;;;;;;22.48;52.09;91992.31;2054840;69;20145;-75
2022/09/16 11:16:45;;;;;;;6.07;3.53;;;;;;;22.05;54.04;91989.88;2054723;70;20213;-75
2022/09/16 11:19:32;;;;;;;4.00;2.85;;;;;;;22.91;51.51;91992.50;2054952;70;20144;-75
2022/09/16 11:22:24;;;;;;;4.22;2.78;;;;;;;22.75;51.23;91987.41;2054911;69;20345;-74
2022/09/16 11:25:23;;;;;;;3.08;2.40;;;;;;;23.18;50.21;91985.44;2054795;70;20605;-74
2022/09/16 11:28:00;;;;;;;6.43;2.50;;;;;;;22.73;51.09;91987.41;2054775;70;20233;-74
2022/09/16 11:30:29;;;;;;;5.20;2.78;;;;;;;24.06;48.20;91988.44;2054541;70;20619;-73
2022/09/16 11:33:26;;;;;;;3.90;2.40;;;;;;;23.02;49.87;91982.53;2055739;69;20161;-74
2022/09/16 11:36:10;;;;;;;3.30;2.83;;;;;;;25.70;48.44;91989.28;2053446;70;20173;-74
2022/09/16 11:38:47;;;;;;;3.35;2.42;;;;;;;24.57;45.69;91989.09;2054343;70;20620;-74
2022/09/16 11:41:29;;;;;;;4.28;2.25;;;;;;;23.98;47.90;91974.78;2054570;70;20301;-74
2022/09/16 11:44:02;;;;;;;3.85;2.50;;;;;;;23.47;49.08;91971.16;2054691;70;20150;-74
2022/09/16 11:46:45;;;;;;;;;;;;;;;23.67;48.36;91970.47;2054767;70;20706;-74
2022/09/16 11:49:24;;;;;;;2.22;1.90;;;;;;;23.82;48.28;91969.75;2053637;70;20497;-74
2022/09/16 11:52:11;;;;;;;3.88;2.58;;;;;;;23.51;47.84;91974.03;2053953;69;20207;-75
2022/09/16 11:55:00;;;;;;;3.38;2.17;;;;;;;23.34;49.15;91967.53;2053662;70;20200;-74
2022/09/16 11:57:29;;;;;;;4.25;2.13;;;;;;;23.26;49.76;91961.75;2054389;69;20174;-75
2022/09/16 12:00:25;;;;;;;2.92;2.28;;;;;;;22.84;49.85;91958.03;2054540;70;20149;-75